createdAt,value
2023-05-25T00:01:02.606Z,14.01
2023-05-25T00:04:13.505Z,14.03
2023-05-25T00:07:21.687Z,14.03
2023-05-25T00:10:30.266Z,14.02
2023-05-25T00:13:38.811Z,14.04
2023-05-25T00:16:55.823Z,14.07
2023-05-25T00:20:04.496Z,14.09
2023-05-25T00:23:12.962Z,14.10
2023-05-25T00:26:21.514Z,14.08
2023-05-25T00:29:16.984Z,14.07
2023-05-25T00:32:25.624Z,14.09
2023-05-25T00:35:32.557Z,14.11
2023-05-25T00:38:41.125Z,14.13
2023-05-25T00:41:49.531Z,14.16
2023-05-25T00:44:50.081Z,14.19
2023-05-25T00:47:58.681Z,14.19
2023-05-25T00:51:22.493Z,14.19
2023-05-25T00:54:32.437Z,14.17
2023-05-25T00:57:41.171Z,14.17
2023-05-25T01:00:29.890Z,14.22
2023-05-25T01:03:38.721Z,14.24
2023-05-25T01:06:48.802Z,14.23
2023-05-25T01:09:57.185Z,14.22
2023-05-25T01:13:05.683Z,14.23
2023-05-25T01:16:14.052Z,14.26
2023-05-25T01:19:22.885Z,14.27
2023-05-25T01:22:29.820Z,14.29
2023-05-25T01:25:45.145Z,14.31
2023-05-25T01:28:53.940Z,14.35
2023-05-25T01:32:02.575Z,14.33
2023-05-25T01:35:11.085Z,14.36
2023-05-25T01:38:19.684Z,14.38
2023-05-25T01:41:28.492Z,14.39
2023-05-25T01:44:38.086Z,14.39
2023-05-25T01:47:50.042Z,14.36
2023-05-25T01:51:01.384Z,14.34
2023-05-25T01:54:09.975Z,14.31
2023-05-25T01:57:18.870Z,14.31
2023-05-25T02:00:19.955Z,14.32
2023-05-25T02:03:21.215Z,14.32
2023-05-25T02:06:03.908Z,14.30
2023-05-25T02:08:52.238Z,14.27
2023-05-25T02:11:43.492Z,14.25
2023-05-25T02:14:51.889Z,14.23
2023-05-25T02:18:00.359Z,14.22
2023-05-25T02:20:39.773Z,14.22
2023-05-25T02:23:32.622Z,14.21
2023-05-25T02:26:41.476Z,14.20
2023-05-25T02:29:50.026Z,14.16
2023-05-25T02:32:58.927Z,14.13
2023-05-25T02:36:09.046Z,14.09
2023-05-25T02:39:00.047Z,14.04
2023-05-25T02:42:08.539Z,14.03
2023-05-25T02:45:17.932Z,14.04
2023-05-25T02:48:13.035Z,14.05
2023-05-25T02:51:21.485Z,14.04
2023-05-25T02:54:29.815Z,14.02
2023-05-25T02:57:29.902Z,14.00
2023-05-25T03:00:32.131Z,14.00
2023-05-25T03:03:03.583Z,14.03
2023-05-25T03:06:12.525Z,14.04
2023-05-25T03:09:22.622Z,14.05
2023-05-25T03:12:24.556Z,14.06
2023-05-25T03:15:33.577Z,14.07
2023-05-25T03:18:35.104Z,14.09
2023-05-25T03:21:43.743Z,14.08
2023-05-25T03:24:53.574Z,14.09
2023-05-25T03:27:55.840Z,14.08
2023-05-25T03:31:04.348Z,14.05
2023-05-25T03:34:12.697Z,13.98
2023-05-25T03:36:51.799Z,13.95
2023-05-25T03:40:00.179Z,13.94
2023-05-25T03:43:10.774Z,13.94
2023-05-25T03:46:18.249Z,13.95
2023-05-25T03:49:26.681Z,13.96
2023-05-25T03:52:35.188Z,13.93
2023-05-25T03:55:44.052Z,13.92
2023-05-25T03:58:53.823Z,13.92
2023-05-25T04:01:52.938Z,13.90
2023-05-25T04:05:02.807Z,13.88
2023-05-25T04:08:11.816Z,13.80
2023-05-25T04:11:20.283Z,13.72
2023-05-25T04:14:18.452Z,13.64
2023-05-25T04:17:27.517Z,13.61
2023-05-25T04:20:38.037Z,13.61
2023-05-25T04:23:47.191Z,13.65
2023-05-25T04:26:51.098Z,13.70
2023-05-25T04:29:52.086Z,13.72
2023-05-25T04:33:02.977Z,13.76
2023-05-25T04:36:13.431Z,13.79
2023-05-25T04:39:21.922Z,13.84
2023-05-25T04:42:30.727Z,13.91
2023-05-25T04:45:19.299Z,13.96
2023-05-25T04:48:27.920Z,13.99
2023-05-25T04:51:38.702Z,14.03
2023-05-25T04:54:48.862Z,14.10
2023-05-25T04:57:57.535Z,14.11
2023-05-25T05:01:05.894Z,14.12
2023-05-25T05:04:15.875Z,14.06
2023-05-25T05:07:08.773Z,14.00
2023-05-25T05:10:09.554Z,13.98
2023-05-25T05:13:12.597Z,14.06
2023-05-25T05:16:21.564Z,14.17
2023-05-25T05:19:30.884Z,14.28
2023-05-25T05:22:32.538Z,14.32
2023-05-25T05:25:33.406Z,14.34
2023-05-25T05:28:44.033Z,14.43
2023-05-25T05:31:44.370Z,14.52
2023-05-25T05:34:52.393Z,14.56
2023-05-25T05:37:53.709Z,14.56
2023-05-25T05:41:03.136Z,14.59
2023-05-25T05:44:02.003Z,15.09
2023-05-25T05:47:01.583Z,15.53
2023-05-25T05:50:04.484Z,15.86
2023-05-25T05:52:59.042Z,16.73
2023-05-25T05:55:27.834Z,17.56
2023-05-25T05:58:20.105Z,17.47
2023-05-25T06:01:10.449Z,18.31
2023-05-25T06:03:56.938Z,18.92
2023-05-25T06:07:06.531Z,19.43
2023-05-25T06:10:15.722Z,19.37
2023-05-25T06:13:16.643Z,20.40
2023-05-25T06:16:14.600Z,21.53
2023-05-25T06:18:45.279Z,22.35
2023-05-25T06:21:54.377Z,21.96
2023-05-25T06:24:36.040Z,21.62
2023-05-25T06:27:13.547Z,22.21
2023-05-25T06:30:03.102Z,23.16
2023-05-25T06:32:44.157Z,24.14
2023-05-25T06:35:29.499Z,24.93
2023-05-25T06:38:19.311Z,25.61
2023-05-25T06:40:51.777Z,26.23
2023-05-25T06:43:38.440Z,26.78
2023-05-25T06:46:07.927Z,27.16
2023-05-25T06:49:10.447Z,27.28
2023-05-25T06:51:40.549Z,27.75
2023-05-25T06:54:09.388Z,27.99
2023-05-25T06:56:38.243Z,27.77
2023-05-25T06:59:19.027Z,26.90
2023-05-25T07:01:49.722Z,26.66
2023-05-25T07:04:32.989Z,26.52
2023-05-25T07:07:10.068Z,26.21
2023-05-25T07:09:39.961Z,26.15
2023-05-25T07:12:11.208Z,25.77
2023-05-25T07:14:49.620Z,25.55
2023-05-25T07:17:47.115Z,24.60
2023-05-25T07:20:16.042Z,23.30
2023-05-25T07:22:47.661Z,23.23
2023-05-25T07:25:17.879Z,23.75
2023-05-25T07:27:51.952Z,24.27
2023-05-25T07:30:22.120Z,24.57
2023-05-25T07:32:51.023Z,24.95
2023-05-25T07:35:21.839Z,25.24
2023-05-25T07:38:01.786Z,25.39
2023-05-25T07:40:34.200Z,25.31
2023-05-25T07:43:11.610Z,24.88
2023-05-25T07:45:46.694Z,24.31
2023-05-25T07:48:16.343Z,23.69
2023-05-25T07:50:48.266Z,22.98
2023-05-25T07:53:17.698Z,22.27
2023-05-25T07:55:48.466Z,21.75
2023-05-25T07:58:17.210Z,21.49
2023-05-25T08:01:01.013Z,21.16
2023-05-25T08:03:48.375Z,20.76
2023-05-25T08:06:29.267Z,20.21
2023-05-25T08:09:09.085Z,19.97
2023-05-25T08:12:30.560Z,20.02
2023-05-25T08:15:20.605Z,20.10
2023-05-25T08:18:06.642Z,19.95
2023-05-25T08:20:40.272Z,19.72
2023-05-25T08:23:25.718Z,19.56
2023-05-25T08:26:45.885Z,19.17
2023-05-25T08:29:42.106Z,18.61
2023-05-25T08:32:19.187Z,18.29
2023-05-25T08:35:05.135Z,18.07
2023-05-25T08:38:16.073Z,17.86
2023-05-25T08:41:15.820Z,17.90
2023-05-25T08:44:16.704Z,17.95
2023-05-25T08:46:55.298Z,18.12
2023-05-25T08:49:43.094Z,18.47
2023-05-25T08:52:25.872Z,18.71
2023-05-25T08:55:11.130Z,18.63
2023-05-25T08:58:09.111Z,18.46
2023-05-25T09:01:08.666Z,18.29
2023-05-25T09:04:17.750Z,18.18
2023-05-25T09:07:22.018Z,18.08
2023-05-25T09:10:30.338Z,18.04
2023-05-25T09:13:39.566Z,17.92
2023-05-25T09:16:45.568Z,17.80
2023-05-25T09:19:37.574Z,17.87
2023-05-25T09:22:28.068Z,18.02
2023-05-25T09:25:36.954Z,18.15
2023-05-25T09:28:45.246Z,18.27
2023-05-25T09:31:22.979Z,18.22
2023-05-25T09:34:13.348Z,18.18
2023-05-25T09:37:14.200Z,18.33
2023-05-25T09:40:04.152Z,18.61
2023-05-25T09:43:24.993Z,18.67
2023-05-25T09:46:24.742Z,18.67
2023-05-25T09:49:26.285Z,18.73
2023-05-25T09:52:35.061Z,18.77
2023-05-25T09:59:02.308Z,19.12
2023-05-25T10:02:12.522Z,19.29
2023-05-25T10:05:05.950Z,19.14
2023-05-25T10:08:16.583Z,19.30
2023-05-25T10:11:00.952Z,19.55
2023-05-25T10:13:30.752Z,19.64
2023-05-25T10:16:39.670Z,19.55
2023-05-25T10:19:31.101Z,19.50
2023-05-25T10:22:29.832Z,19.67
2023-05-25T10:25:31.182Z,19.67
2023-05-25T10:28:36.758Z,19.68
2023-05-25T10:31:45.601Z,19.59
2023-05-25T10:34:26.617Z,19.58
2023-05-25T10:37:23.283Z,19.64
2023-05-25T10:40:14.029Z,19.59
2023-05-25T10:43:22.459Z,19.58
2023-05-25T10:46:21.684Z,19.61
2023-05-25T10:49:30.495Z,19.50
2023-05-25T10:52:38.997Z,19.63
2023-05-25T10:55:48.343Z,19.89
2023-05-25T10:58:17.935Z,20.13
2023-05-25T11:01:39.851Z,20.43
2023-05-25T11:04:39.059Z,20.81
2023-05-25T11:07:44.402Z,21.09
2023-05-25T11:10:43.921Z,21.30
2023-05-25T11:13:52.529Z,21.49
2023-05-25T11:16:40.825Z,21.51
2023-05-25T11:19:35.277Z,20.93
2023-05-25T11:22:46.529Z,20.58
2023-05-25T11:25:54.270Z,20.18
2023-05-25T11:28:47.022Z,19.82
2023-05-25T11:31:56.319Z,19.74
2023-05-25T11:35:09.704Z,19.66
2023-05-25T11:38:19.324Z,19.72
2023-05-25T11:41:28.436Z,19.98
2023-05-25T11:44:37.115Z,20.46
2023-05-25T11:47:41.848Z,20.65
2023-05-25T11:50:50.532Z,20.59
2023-05-25T11:54:00.377Z,20.46
2023-05-25T11:57:08.756Z,20.71
2023-05-25T12:00:00.359Z,21.23
2023-05-25T12:03:08.807Z,21.39
2023-05-25T12:05:42.222Z,21.71
2023-05-25T12:08:10.666Z,21.94
2023-05-25T12:11:19.483Z,21.96
2023-05-25T12:14:10.709Z,21.97
2023-05-25T12:17:02.846Z,22.01
2023-05-25T12:19:34.727Z,22.20
2023-05-25T12:22:14.093Z,22.20
2023-05-25T12:25:00.628Z,22.13
2023-05-25T12:27:28.900Z,22.08
2023-05-25T12:30:37.412Z,22.29
2023-05-25T12:33:44.940Z,22.43
2023-05-25T12:36:15.883Z,22.23
2023-05-25T12:39:26.414Z,22.13
2023-05-25T12:42:24.735Z,22.03
2023-05-25T12:45:36.093Z,22.14
2023-05-25T12:48:36.284Z,22.12
2023-05-25T12:51:45.373Z,22.03
2023-05-25T12:54:33.456Z,22.05
2023-05-25T12:57:42.540Z,21.97
2023-05-25T13:00:51.793Z,21.98
2023-05-25T13:04:00.306Z,21.87
2023-05-25T13:07:08.708Z,21.82
2023-05-25T13:10:06.671Z,21.67
2023-05-25T13:12:35.423Z,21.65
2023-05-25T13:15:03.607Z,21.69
2023-05-25T13:18:04.880Z,21.80
2023-05-25T13:21:13.546Z,21.76
2023-05-25T13:24:21.870Z,21.74
2023-05-25T13:27:19.130Z,21.64
2023-05-25T13:30:04.041Z,21.64
2023-05-25T13:32:51.142Z,21.70
2023-05-25T13:35:59.240Z,21.80
2023-05-25T13:39:02.027Z,21.76
2023-05-25T13:42:04.103Z,21.50
2023-05-25T13:45:13.849Z,21.41
2023-05-25T13:48:06.904Z,21.32
2023-05-25T13:51:15.568Z,21.31
2023-05-25T13:54:25.026Z,21.28
2023-05-25T13:57:33.560Z,21.05
2023-05-25T14:00:32.482Z,20.87
2023-05-25T14:03:41.518Z,20.84
2023-05-25T14:06:40.672Z,20.78
2023-05-25T14:09:48.147Z,20.77
2023-05-25T14:12:19.950Z,20.77
2023-05-25T14:15:23.620Z,20.67
2023-05-25T14:18:25.923Z,20.59
2023-05-25T14:21:35.024Z,20.61
2023-05-25T14:24:33.435Z,20.55
2023-05-25T14:27:33.025Z,20.35
2023-05-25T14:30:24.323Z,20.13
2023-05-25T14:33:14.794Z,20.12
2023-05-25T14:36:14.338Z,20.16
2023-05-25T14:39:23.125Z,20.05
2023-05-25T14:42:30.442Z,20.02
2023-05-25T14:45:24.965Z,19.99
2023-05-25T14:48:27.226Z,19.92
2023-05-25T14:51:36.401Z,20.06
2023-05-25T14:54:44.991Z,20.12
2023-05-25T14:57:56.535Z,20.25
2023-05-25T15:00:58.082Z,20.35
2023-05-25T15:03:49.115Z,20.45
2023-05-25T15:06:39.397Z,20.48
2023-05-25T15:09:30.117Z,20.61
2023-05-25T15:12:38.571Z,20.65
2023-05-25T15:15:47.481Z,20.53
2023-05-25T15:18:54.670Z,20.54
2023-05-25T15:21:36.794Z,20.56
2023-05-25T15:24:17.829Z,20.55
2023-05-25T15:27:26.443Z,20.40
2023-05-25T15:30:34.942Z,20.21
2023-05-25T15:33:56.170Z,20.39
2023-05-25T15:37:05.801Z,20.79
2023-05-25T15:39:58.351Z,21.26
2023-05-25T15:43:06.750Z,21.38
2023-05-25T15:46:04.114Z,21.26
2023-05-25T15:48:35.099Z,21.08
2023-05-25T15:51:06.617Z,20.92
2023-05-25T15:53:43.213Z,20.84
2023-05-25T15:56:51.469Z,20.95
2023-05-25T15:59:38.478Z,21.15
2023-05-25T16:02:47.109Z,21.41
2023-05-25T16:05:15.796Z,21.77
2023-05-25T16:08:24.494Z,21.89
2023-05-25T16:11:26.190Z,21.71
2023-05-25T16:14:26.906Z,21.77
2023-05-25T16:17:34.327Z,22.06
2023-05-25T16:20:43.068Z,22.32
2023-05-25T16:23:53.987Z,22.56
2023-05-25T16:27:02.668Z,22.32
2023-05-25T16:30:01.172Z,22.45
2023-05-25T16:33:09.848Z,22.73
2023-05-25T16:36:17.193Z,23.07
2023-05-25T16:39:18.793Z,22.98
2023-05-25T16:42:26.470Z,22.56
2023-05-25T16:45:15.310Z,22.03
2023-05-25T16:56:20.070Z,20.72
2023-05-25T16:59:28.645Z,20.94
2023-05-25T17:02:37.402Z,21.19
2023-05-25T17:05:46.449Z,21.36
2023-05-25T17:08:55.119Z,21.31
2023-05-25T17:12:04.889Z,21.14
2023-05-25T17:15:13.507Z,20.84
2023-05-25T17:18:03.142Z,20.51
2023-05-25T17:20:40.894Z,20.26
2023-05-25T17:23:49.868Z,20.31
2023-05-25T17:26:49.569Z,20.47
2023-05-25T17:29:42.090Z,20.61
2023-05-25T17:32:50.699Z,20.81
2023-05-25T17:35:59.278Z,20.96
2023-05-25T17:39:08.082Z,20.90
2023-05-25T17:42:16.593Z,20.65
2023-05-25T17:45:25.050Z,20.34
2023-05-25T17:48:33.648Z,20.15
2023-05-25T17:51:02.593Z,20.00
2023-05-25T17:53:51.040Z,19.84
2023-05-25T17:56:39.780Z,19.72
2023-05-25T17:59:48.656Z,19.69
2023-05-25T18:02:57.399Z,19.88
2023-05-25T18:06:06.283Z,20.04
2023-05-25T18:09:14.904Z,20.18
2023-05-25T18:12:25.488Z,20.22
2023-05-25T18:15:35.005Z,20.18
2023-05-25T18:18:43.782Z,20.11
2023-05-25T18:21:42.571Z,19.82
2023-05-25T18:24:40.498Z,19.59
2023-05-25T18:27:50.422Z,19.40
2023-05-25T18:30:53.738Z,19.23
2023-05-25T18:34:02.481Z,19.32
2023-05-25T18:37:12.683Z,19.50
2023-05-25T18:40:23.401Z,19.68
2023-05-25T18:43:12.075Z,19.80
2023-05-25T18:46:22.085Z,19.94
2023-05-25T18:49:30.667Z,20.05
2023-05-25T18:52:39.184Z,20.04
2023-05-25T18:55:48.523Z,20.00
2023-05-25T18:58:57.270Z,20.02
2023-05-25T19:02:07.666Z,20.03
2023-05-25T19:05:18.319Z,19.98
2023-05-25T19:08:29.036Z,19.73
2023-05-25T19:11:37.801Z,19.44
2023-05-25T19:14:46.664Z,19.20
2023-05-25T19:17:56.893Z,18.97
2023-05-25T19:20:58.854Z,18.70
2023-05-25T19:24:33.243Z,18.47
2023-05-25T19:27:54.019Z,18.27
2023-05-25T19:31:03.051Z,18.07
2023-05-25T19:34:12.887Z,17.92
2023-05-25T19:37:22.814Z,17.77
2023-05-25T19:40:34.156Z,17.60
2023-05-25T19:43:33.877Z,17.44
2023-05-25T19:46:42.596Z,17.30
2023-05-25T19:49:51.308Z,17.15
2023-05-25T19:53:00.026Z,16.99
2023-05-25T19:56:10.284Z,16.86
2023-05-25T19:59:19.154Z,16.77
2023-05-25T20:02:29.639Z,16.71
2023-05-25T20:05:29.129Z,16.59
2023-05-25T20:24:49.255Z,16.07
2023-05-25T20:42:41.897Z,15.59
2023-05-25T20:45:47.547Z,15.51
2023-05-25T20:56:24.845Z,15.30
2023-05-25T20:59:33.237Z,15.24
2023-05-25T21:06:27.583Z,15.10
2023-05-25T21:09:38.006Z,15.05
2023-05-25T21:17:52.636Z,14.92
2023-05-25T21:21:30.493Z,14.82
2023-05-25T21:32:12.572Z,14.55
2023-05-25T21:38:56.159Z,14.41
2023-05-25T22:20:10.794Z,13.46
2023-05-25T22:23:19.370Z,13.38
2023-05-25T22:26:28.100Z,13.32
2023-05-25T22:29:19.369Z,13.25
2023-05-25T22:40:05.208Z,12.95
2023-05-25T22:43:13.540Z,12.89
2023-05-25T22:46:15.109Z,12.83
2023-05-25T22:49:23.831Z,12.76
2023-05-25T22:52:32.532Z,12.69
2023-05-25T22:55:40.850Z,12.60
2023-05-25T22:58:49.457Z,12.52
2023-05-25T23:01:58.212Z,12.42
2023-05-25T23:05:07.034Z,12.34
2023-05-25T23:08:15.876Z,12.28
2023-05-25T23:11:24.595Z,12.23
2023-05-25T23:14:33.421Z,12.18
2023-05-25T23:17:42.184Z,12.10
2023-05-25T23:20:50.563Z,12.03
2023-05-25T23:31:37.614Z,11.85
2023-05-25T23:34:49.555Z,11.80
2023-05-25T23:37:58.802Z,11.75
2023-05-25T23:41:26.566Z,11.70
2023-05-25T23:44:53.463Z,11.66
2023-05-25T23:48:20.598Z,11.64
2023-05-25T23:51:32.281Z,11.60
2023-05-25T23:54:58.482Z,11.56
